createdAt,value
2019-02-16T00:01:30.299Z,12.13
2019-02-16T00:03:58.843Z,15.17
2019-02-16T00:06:26.902Z,11.23
2019-02-16T00:08:54.933Z,12.90
2019-02-16T00:11:23.380Z,12.60
2019-02-16T00:13:51.478Z,14.23
2019-02-16T00:16:19.421Z,17.90
2019-02-16T00:18:47.352Z,17.77
2019-02-16T00:21:15.331Z,17.53
2019-02-16T00:23:43.411Z,15.03
2019-02-16T00:26:12.765Z,14.90
2019-02-16T00:28:40.843Z,14.07
2019-02-16T00:31:08.880Z,16.50
2019-02-16T00:33:36.952Z,15.77
2019-02-16T00:36:04.898Z,14.50
2019-02-16T00:38:32.932Z,17.03
2019-02-16T00:41:01.079Z,18.23
2019-02-16T00:43:29.075Z,16.90
2019-02-16T00:45:57.018Z,15.67
2019-02-16T00:48:25.074Z,17.03
2019-02-16T00:50:53.116Z,17.13
2019-02-16T00:53:21.162Z,14.43
2019-02-16T00:55:49.149Z,16.17
2019-02-16T00:58:17.154Z,19.17
2019-02-16T01:00:46.283Z,18.50
2019-02-16T01:03:14.354Z,13.90
2019-02-16T01:05:42.468Z,16.30
2019-02-16T01:08:10.435Z,16.30
2019-02-16T01:10:38.376Z,16.53
2019-02-16T01:13:06.383Z,16.77
2019-02-16T01:15:34.345Z,16.30
2019-02-16T01:18:02.289Z,15.97
2019-02-16T01:20:30.289Z,17.07
2019-02-16T01:23:01.440Z,16.37
2019-02-16T01:25:29.481Z,17.43
2019-02-16T01:27:57.468Z,18.67
2019-02-16T01:30:25.406Z,18.43
2019-02-16T01:32:53.437Z,18.97
2019-02-16T01:35:21.604Z,16.70
2019-02-16T01:37:49.815Z,17.50
2019-02-16T01:40:17.828Z,17.73
2019-02-16T01:42:45.959Z,20.93
2019-02-16T01:45:14.039Z,20.07
2019-02-16T01:47:42.038Z,20.33
2019-02-16T01:50:10.195Z,21.60
2019-02-16T01:52:38.349Z,17.17
2019-02-16T01:55:07.541Z,17.27
2019-02-16T01:57:35.641Z,26.80
2019-02-16T02:00:04.053Z,21.70
2019-02-16T02:02:33.321Z,17.90
2019-02-16T02:05:01.908Z,20.00
2019-02-16T02:07:30.012Z,20.47
2019-02-16T02:09:58.056Z,21.67
2019-02-16T02:12:26.555Z,21.13
2019-02-16T02:14:55.472Z,20.17
2019-02-16T02:17:24.035Z,20.27
2019-02-16T02:19:52.129Z,19.37
2019-02-16T02:22:20.266Z,19.07
2019-02-16T02:24:48.332Z,19.03
2019-02-16T02:27:16.450Z,21.53
2019-02-16T02:29:44.533Z,25.67
2019-02-16T02:32:12.470Z,20.57
2019-02-16T02:34:40.600Z,16.93
2019-02-16T02:37:08.744Z,18.90
2019-02-16T02:39:36.812Z,18.87
2019-02-16T02:42:04.886Z,19.27
2019-02-16T02:44:34.452Z,22.67
2019-02-16T02:47:02.584Z,18.60
2019-02-16T02:49:33.022Z,21.63
2019-02-16T02:52:01.108Z,22.37
2019-02-16T02:54:31.382Z,19.07
2019-02-16T02:56:59.601Z,19.70
2019-02-16T02:59:27.806Z,23.03
2019-02-16T03:01:55.849Z,21.70
2019-02-16T03:04:23.908Z,25.03
2019-02-16T03:06:53.084Z,21.30
2019-02-16T03:09:21.239Z,21.27
2019-02-16T03:11:49.322Z,22.07
2019-02-16T03:14:17.390Z,20.33
2019-02-16T03:16:45.454Z,21.33
2019-02-16T03:19:14.011Z,22.57
2019-02-16T03:21:42.050Z,21.37
2019-02-16T03:24:10.254Z,20.07
2019-02-16T03:26:46.474Z,22.67
2019-02-16T03:29:32.414Z,19.67
2019-02-16T03:32:10.244Z,22.43
2019-02-16T03:34:44.302Z,25.43
2019-02-16T03:37:29.142Z,17.90
2019-02-16T03:39:58.261Z,20.90
2019-02-16T03:42:26.386Z,22.43
2019-02-16T03:44:54.445Z,24.97
2019-02-16T03:47:22.436Z,25.00
2019-02-16T03:49:50.465Z,21.50
2019-02-16T03:52:18.866Z,21.73
2019-02-16T03:54:48.493Z,19.03
2019-02-16T03:57:16.620Z,22.97
2019-02-16T03:59:44.695Z,19.20
2019-02-16T04:02:12.750Z,21.03
2019-02-16T04:04:40.876Z,21.87
2019-02-16T04:07:08.965Z,19.97
2019-02-16T04:09:37.101Z,21.67
2019-02-16T04:12:05.562Z,21.20
2019-02-16T04:14:34.228Z,19.73
2019-02-16T04:17:02.644Z,23.43
2019-02-16T04:19:30.911Z,20.50
2019-02-16T04:21:59.125Z,21.50
2019-02-16T04:24:27.422Z,23.47
2019-02-16T04:26:55.414Z,23.37
2019-02-16T04:29:23.496Z,22.63
2019-02-16T04:31:51.528Z,21.40
2019-02-16T04:34:19.615Z,21.53
2019-02-16T04:36:47.769Z,23.57
2019-02-16T04:39:15.835Z,27.07
2019-02-16T04:41:43.822Z,23.73
2019-02-16T04:44:13.454Z,25.33
2019-02-16T04:46:43.305Z,20.00
2019-02-16T04:49:11.306Z,24.83
2019-02-16T04:51:40.304Z,23.63
2019-02-16T04:54:09.763Z,25.43
2019-02-16T04:56:38.032Z,26.03
2019-02-16T04:59:06.456Z,23.83
2019-02-16T05:01:34.833Z,22.97
2019-02-16T05:04:05.100Z,19.93
2019-02-16T05:06:33.255Z,23.60
2019-02-16T05:09:03.905Z,23.93
2019-02-16T05:11:32.312Z,24.97
2019-02-16T05:14:03.047Z,26.03
2019-02-16T05:16:32.216Z,26.97
2019-02-16T05:19:00.184Z,21.93
2019-02-16T05:21:28.179Z,23.97
2019-02-16T05:23:57.872Z,24.07
2019-02-16T05:26:25.864Z,20.73
2019-02-16T05:28:53.820Z,28.33
2019-02-16T05:31:22.085Z,26.47
2019-02-16T05:33:50.147Z,22.93
2019-02-16T05:36:18.126Z,22.00
2019-02-16T05:38:49.041Z,24.63
2019-02-16T05:41:17.203Z,24.13
2019-02-16T05:43:45.639Z,24.83
2019-02-16T05:46:13.623Z,26.77
2019-02-16T05:48:47.669Z,25.63
2019-02-16T05:51:15.691Z,24.17
2019-02-16T05:53:45.744Z,24.47
2019-02-16T05:56:13.758Z,25.73
2019-02-16T05:58:41.727Z,25.73
2019-02-16T06:01:09.736Z,28.20
2019-02-16T06:03:39.417Z,23.10
2019-02-16T06:06:07.460Z,21.80
2019-02-16T06:08:35.611Z,24.53
2019-02-16T06:11:05.688Z,22.83
2019-02-16T06:13:33.370Z,24.27
2019-02-16T06:16:01.302Z,27.27
2019-02-16T06:18:29.317Z,22.40
2019-02-16T06:20:57.341Z,23.70
2019-02-16T06:23:25.358Z,21.87
2019-02-16T06:25:53.382Z,23.47
2019-02-16T06:28:21.441Z,22.33
2019-02-16T06:30:49.529Z,22.70
2019-02-16T06:33:17.620Z,24.67
2019-02-16T06:35:51.131Z,28.10
2019-02-16T06:38:19.133Z,23.30
2019-02-16T06:40:47.088Z,22.80
2019-02-16T06:43:15.210Z,23.50
2019-02-16T06:45:43.236Z,24.27
2019-02-16T06:48:11.553Z,26.63
2019-02-16T06:50:39.722Z,27.30
2019-02-16T06:53:13.179Z,24.27
2019-02-16T06:55:49.675Z,22.07
2019-02-16T06:58:17.887Z,27.40
2019-02-16T07:00:46.759Z,22.93
2019-02-16T07:03:14.796Z,24.93
2019-02-16T07:05:44.393Z,28.23
2019-02-16T07:08:12.411Z,22.90
2019-02-16T07:10:40.525Z,24.50
2019-02-16T07:13:09.054Z,23.33
2019-02-16T07:15:38.233Z,26.67
2019-02-16T07:18:20.698Z,27.70
2019-02-16T07:20:48.718Z,28.37
2019-02-16T07:23:22.580Z,29.07
2019-02-16T07:25:48.449Z,26.70
2019-02-16T07:28:16.436Z,23.00
2019-02-16T07:30:44.658Z,26.63
2019-02-16T07:33:12.853Z,23.63
2019-02-16T07:35:40.925Z,22.80
2019-02-16T07:38:09.037Z,23.63
2019-02-16T07:40:36.985Z,22.80
2019-02-16T07:43:04.938Z,19.57
2019-02-16T07:46:00.759Z,17.80
2019-02-16T07:48:39.071Z,20.37
2019-02-16T07:51:18.835Z,21.20
2019-02-16T07:54:04.240Z,21.70
2019-02-16T07:57:07.175Z,25.17
2019-02-16T07:59:51.696Z,25.87
2019-02-16T08:02:24.375Z,22.30
2019-02-16T08:05:14.467Z,21.67
2019-02-16T08:08:04.821Z,24.40
2019-02-16T08:10:51.836Z,22.70
2019-02-16T08:13:37.897Z,24.13
2019-02-16T08:16:36.861Z,21.93
2019-02-16T08:19:32.704Z,20.93
2019-02-16T08:22:12.700Z,22.23
2019-02-16T08:25:02.519Z,22.70
2019-02-16T08:28:01.688Z,22.13
2019-02-16T08:30:48.724Z,22.57
2019-02-16T08:33:37.419Z,20.00
2019-02-16T08:36:23.522Z,24.27
2019-02-16T08:39:25.621Z,22.10
2019-02-16T08:42:24.428Z,22.70
2019-02-16T08:45:20.662Z,20.50
2019-02-16T08:48:06.803Z,23.30
2019-02-16T08:50:52.315Z,18.33
2019-02-16T08:53:29.257Z,20.00
2019-02-16T08:56:22.077Z,23.27
2019-02-16T08:59:08.296Z,22.03
2019-02-16T09:01:52.152Z,20.80
2019-02-16T09:04:38.334Z,23.23
2019-02-16T09:07:20.633Z,18.67
2019-02-16T09:10:06.477Z,20.67
2019-02-16T09:13:11.956Z,21.27
2019-02-16T09:15:57.843Z,21.00
2019-02-16T09:19:11.548Z,18.97
2019-02-16T09:22:02.146Z,21.87
2019-02-16T09:24:45.245Z,25.17
2019-02-16T09:27:35.400Z,23.03
2019-02-16T09:30:25.461Z,22.87
2019-02-16T09:33:24.509Z,22.67
2019-02-16T09:36:17.460Z,19.30
2019-02-16T09:38:55.114Z,21.30
2019-02-16T09:41:45.100Z,23.07
2019-02-16T09:44:30.706Z,22.40
2019-02-16T09:47:16.211Z,21.50
2019-02-16T09:50:12.794Z,19.60
2019-02-16T09:53:05.767Z,21.40
2019-02-16T09:55:52.703Z,20.80
2019-02-16T09:58:30.327Z,22.27
2019-02-16T10:01:32.758Z,24.10
2019-02-16T10:04:21.051Z,22.23
2019-02-16T10:07:06.667Z,21.67
2019-02-16T10:09:54.801Z,22.40
2019-02-16T10:12:50.963Z,18.80
2019-02-16T10:15:40.896Z,22.10
2019-02-16T10:18:26.610Z,19.50
2019-02-16T10:21:13.951Z,22.90
2019-02-16T10:24:01.058Z,18.90
2019-02-16T10:26:46.941Z,19.77
2019-02-16T10:29:34.136Z,20.17
2019-02-16T10:32:27.306Z,20.80
2019-02-16T10:35:13.119Z,22.77
2019-02-16T10:38:03.279Z,20.80
2019-02-16T10:40:56.607Z,19.93
2019-02-16T10:43:36.088Z,22.67
2019-02-16T10:46:24.338Z,21.83
2019-02-16T10:49:11.322Z,22.20
2019-02-16T10:51:48.982Z,19.60
2019-02-16T10:54:45.181Z,19.97
2019-02-16T10:57:24.254Z,19.27
2019-02-16T11:00:11.342Z,21.07
2019-02-16T11:03:01.032Z,21.10
2019-02-16T11:05:57.334Z,19.37
2019-02-16T11:08:33.014Z,20.53
2019-02-16T11:11:21.100Z,17.97
2019-02-16T11:14:06.892Z,19.07
2019-02-16T11:16:55.419Z,21.47
2019-02-16T11:19:51.580Z,18.80
2019-02-16T11:22:25.889Z,19.77
2019-02-16T11:25:24.787Z,20.97
2019-02-16T11:28:11.662Z,20.73
2019-02-16T11:30:58.794Z,18.77
2019-02-16T11:33:38.943Z,18.60
2019-02-16T11:36:18.067Z,18.83
2019-02-16T11:39:03.628Z,19.10
2019-02-16T11:41:37.208Z,19.57
2019-02-16T11:44:24.211Z,21.80
2019-02-16T11:47:20.321Z,19.07
2019-02-16T11:50:07.371Z,21.13
2019-02-16T11:53:06.616Z,20.20
2019-02-16T11:55:56.899Z,22.73
2019-02-16T11:58:58.985Z,20.00
2019-02-16T12:01:43.017Z,20.33
2019-02-16T12:04:18.398Z,21.37
2019-02-16T12:07:04.008Z,19.33
2019-02-16T12:09:41.029Z,19.10
2019-02-16T12:12:18.277Z,19.27
2019-02-16T12:15:01.469Z,19.87
2019-02-16T12:17:54.604Z,21.43
2019-02-16T12:20:34.125Z,20.80
2019-02-16T12:23:20.148Z,19.27
2019-02-16T12:26:02.045Z,19.30
2019-02-16T12:29:01.000Z,19.40
2019-02-16T12:31:51.087Z,18.90
2019-02-16T12:34:47.397Z,19.57
2019-02-16T12:37:30.490Z,17.47
2019-02-16T12:40:26.685Z,15.43
2019-02-16T12:43:29.093Z,19.73
2019-02-16T12:46:14.660Z,18.03
2019-02-16T12:49:01.794Z,16.83
2019-02-16T12:51:43.606Z,18.50
2019-02-16T12:54:27.403Z,21.70
2019-02-16T12:57:23.295Z,21.67
2019-02-16T13:00:02.420Z,19.87
2019-02-16T13:03:01.561Z,17.77
2019-02-16T13:05:48.551Z,14.40
2019-02-16T13:08:38.580Z,14.37
2019-02-16T13:11:12.584Z,18.80
2019-02-16T13:14:14.962Z,17.87
2019-02-16T13:17:11.014Z,20.80
2019-02-16T13:20:07.302Z,20.63
2019-02-16T13:22:57.386Z,17.80
2019-02-16T13:25:31.443Z,18.43
2019-02-16T13:28:23.378Z,19.23
2019-02-16T13:30:59.614Z,19.17
2019-02-16T13:33:45.499Z,18.37
2019-02-16T13:36:44.530Z,18.33
2019-02-16T13:39:34.784Z,17.63
2019-02-16T13:42:20.241Z,19.80
2019-02-16T13:45:02.933Z,17.47
2019-02-16T13:47:36.028Z,19.27
2019-02-16T13:50:32.911Z,20.77
2019-02-16T13:53:18.879Z,20.63
2019-02-16T13:56:05.992Z,24.13
2019-02-16T13:58:42.550Z,20.93
2019-02-16T14:01:20.571Z,19.23
2019-02-16T14:04:22.497Z,19.43
2019-02-16T14:07:08.276Z,18.57
2019-02-16T14:10:04.489Z,19.10
2019-02-16T14:12:57.562Z,18.97
2019-02-16T14:15:40.207Z,18.53
2019-02-16T14:18:08.240Z,18.73
2019-02-16T14:20:36.139Z,21.63
2019-02-16T14:23:04.050Z,19.23
2019-02-16T14:25:43.855Z,21.20
2019-02-16T14:28:08.673Z,19.77
2019-02-16T14:30:36.591Z,21.63
2019-02-16T14:33:04.512Z,20.33
2019-02-16T14:35:32.400Z,20.80
2019-02-16T14:38:19.761Z,22.27
2019-02-16T14:40:47.761Z,23.17
2019-02-16T14:43:15.691Z,22.03
2019-02-16T14:45:43.669Z,20.33
2019-02-16T14:48:11.932Z,21.23
2019-02-16T14:50:40.081Z,20.43
2019-02-16T14:53:08.019Z,23.33
2019-02-16T14:55:36.003Z,23.63
2019-02-16T14:58:04.365Z,21.47
2019-02-16T15:00:32.322Z,27.47
2019-02-16T15:03:00.265Z,23.77
2019-02-16T15:05:28.163Z,22.40
2019-02-16T15:07:56.081Z,23.10
2019-02-16T15:10:24.082Z,23.83
2019-02-16T15:12:52.134Z,24.30
2019-02-16T15:15:20.065Z,23.33
2019-02-16T15:17:48.009Z,28.07
2019-02-16T15:20:16.029Z,27.07
2019-02-16T15:22:43.965Z,26.50
2019-02-16T15:25:11.876Z,29.63
2019-02-16T15:27:39.936Z,29.27
2019-02-16T15:30:09.653Z,24.97
2019-02-16T15:32:37.552Z,25.37
2019-02-16T15:35:05.718Z,24.77
2019-02-16T15:37:33.800Z,25.47
2019-02-16T15:40:01.903Z,30.10
2019-02-16T15:42:29.907Z,24.60
2019-02-16T15:44:57.831Z,25.07
2019-02-16T15:47:25.836Z,27.97
2019-02-16T15:49:53.813Z,24.83
2019-02-16T15:52:21.709Z,23.97
2019-02-16T15:54:49.672Z,27.33
2019-02-16T15:57:17.764Z,26.63
2019-02-16T15:59:46.084Z,27.63
2019-02-16T16:02:14.034Z,28.93
2019-02-16T16:04:41.981Z,27.60
2019-02-16T16:07:14.660Z,27.80
2019-02-16T16:10:00.733Z,25.70
2019-02-16T16:12:50.705Z,26.53
2019-02-16T16:15:44.855Z,24.00
2019-02-16T16:18:47.127Z,24.70
2019-02-16T16:21:36.879Z,25.53
2019-02-16T16:24:22.266Z,28.77
2019-02-16T16:27:09.186Z,26.80
2019-02-16T16:29:56.261Z,32.57
2019-02-16T16:32:41.771Z,26.37
2019-02-16T16:35:41.070Z,24.07
2019-02-16T16:38:19.995Z,29.00
2019-02-16T16:41:05.606Z,26.17
2019-02-16T16:43:55.800Z,29.67
2019-02-16T16:46:45.589Z,28.60
2019-02-16T16:49:38.884Z,26.33
2019-02-16T16:52:34.961Z,29.07
2019-02-16T16:55:31.146Z,28.27
2019-02-16T16:58:15.247Z,29.10
2019-02-16T17:01:00.884Z,26.90
2019-02-16T17:03:40.920Z,28.60
2019-02-16T17:06:17.873Z,28.73
2019-02-16T17:09:04.805Z,30.30
2019-02-16T17:11:58.857Z,34.43
2019-02-16T17:14:54.959Z,28.53
2019-02-16T17:17:54.350Z,28.10
2019-02-16T17:20:47.403Z,28.50
2019-02-16T17:23:40.695Z,28.53
2019-02-16T17:26:26.606Z,31.57
2019-02-16T17:29:22.830Z,28.83
2019-02-16T17:32:02.293Z,28.07
2019-02-16T17:34:42.860Z,30.80
2019-02-16T17:37:38.897Z,29.53
2019-02-16T17:40:16.614Z,31.67
2019-02-16T17:42:54.392Z,34.20
2019-02-16T17:45:44.373Z,31.40
2019-02-16T17:48:46.652Z,30.53
2019-02-16T17:51:39.647Z,32.40
2019-02-16T17:54:36.032Z,34.93
2019-02-16T17:57:26.197Z,32.17
2019-02-16T18:00:01.603Z,31.83
2019-02-16T18:02:43.493Z,32.53
2019-02-16T18:05:35.894Z,32.77
2019-02-16T18:08:21.696Z,32.70
2019-02-16T18:11:14.534Z,29.93
2019-02-16T18:14:04.506Z,34.47
2019-02-16T18:16:50.715Z,32.07
2019-02-16T18:19:30.122Z,32.43
2019-02-16T18:22:12.782Z,33.17
2019-02-16T18:25:05.597Z,31.10
2019-02-16T18:27:58.371Z,29.87
2019-02-16T18:30:39.287Z,33.27
2019-02-16T18:33:16.889Z,35.33
2019-02-16T18:36:03.927Z,33.90
2019-02-16T18:38:49.716Z,35.10
2019-02-16T18:41:39.992Z,34.57
2019-02-16T18:44:26.920Z,31.77
2019-02-16T18:47:13.955Z,35.17
2019-02-16T18:50:19.387Z,34.87
2019-02-16T18:53:12.194Z,33.73
2019-02-16T18:55:59.207Z,32.63
2019-02-16T18:58:38.370Z,34.20
2019-02-16T19:01:37.247Z,32.47
2019-02-16T19:04:39.664Z,38.47
2019-02-16T19:07:32.520Z,33.20
2019-02-16T19:10:31.578Z,31.90
2019-02-16T19:13:09.147Z,34.13
2019-02-16T19:16:05.456Z,32.80
2019-02-16T19:18:52.549Z,33.93
2019-02-16T19:21:45.600Z,38.37
2019-02-16T19:24:31.497Z,37.33
2019-02-16T19:27:27.424Z,35.47
2019-02-16T19:30:07.809Z,35.67
2019-02-16T19:32:48.477Z,35.87
2019-02-16T19:35:38.446Z,34.47
2019-02-16T19:38:25.457Z,36.67
2019-02-16T19:41:15.731Z,41.37
2019-02-16T19:43:49.681Z,38.83
2019-02-16T19:46:42.811Z,34.50
2019-02-16T19:49:16.814Z,35.20
2019-02-16T19:52:04.402Z,39.23
2019-02-16T19:54:54.149Z,33.83
2019-02-16T19:57:40.886Z,35.83
2019-02-16T20:00:22.335Z,45.27
2019-02-16T20:03:12.322Z,45.97
2019-02-16T20:05:59.434Z,41.43
2019-02-16T20:08:32.963Z,38.77
2019-02-16T20:11:20.071Z,43.37
2019-02-16T20:13:55.908Z,41.83
2019-02-16T20:16:41.986Z,35.67
2019-02-16T20:19:29.005Z,39.03
2019-02-16T20:22:19.036Z,35.17
2019-02-16T20:25:04.778Z,45.10
2019-02-16T20:27:44.128Z,41.83
2019-02-16T20:30:29.776Z,42.47
2019-02-16T20:33:12.848Z,41.03
2019-02-16T20:36:15.224Z,38.77
2019-02-16T20:39:08.273Z,41.30
2019-02-16T20:42:10.413Z,48.67
2019-02-16T20:45:00.347Z,43.47
2019-02-16T20:47:34.161Z,42.73
2019-02-16T20:50:20.786Z,43.80
2019-02-16T20:53:16.971Z,38.50
2019-02-16T20:56:22.011Z,39.60
2019-02-16T20:59:16.816Z,39.23
2019-02-16T21:01:55.833Z,42.57
2019-02-16T21:04:34.667Z,38.93
2019-02-16T21:07:30.793Z,45.77
2019-02-16T21:10:13.843Z,42.70
2019-02-16T21:12:55.864Z,38.67
2019-02-16T21:15:46.024Z,41.03
2019-02-16T21:18:36.050Z,42.70
2019-02-16T21:21:26.121Z,40.37
2019-02-16T21:24:24.971Z,44.23
2019-02-16T21:27:10.611Z,46.77
2019-02-16T21:30:06.862Z,47.83
2019-02-16T21:32:56.537Z,42.47
2019-02-16T21:35:48.304Z,39.80
2019-02-16T21:38:36.812Z,38.87
2019-02-16T21:41:10.122Z,45.27
2019-02-16T21:44:00.164Z,45.00
2019-02-16T21:46:40.973Z,43.23
2019-02-16T21:49:35.319Z,40.23
2019-02-16T21:52:31.553Z,37.70
2019-02-16T21:55:05.387Z,41.80
2019-02-16T21:57:55.456Z,46.27
2019-02-16T22:00:42.613Z,46.60
2019-02-16T22:03:28.430Z,40.70
2019-02-16T22:06:30.856Z,39.57
2019-02-16T22:09:20.895Z,42.37
2019-02-16T22:12:17.031Z,45.63
2019-02-16T22:14:44.987Z,44.03
2019-02-16T22:17:12.936Z,47.60
2019-02-16T22:19:40.901Z,42.17
2019-02-16T22:22:08.880Z,44.73
2019-02-16T22:24:36.774Z,42.23
2019-02-16T22:27:04.683Z,41.80
2019-02-16T22:29:32.673Z,38.63
2019-02-16T22:32:00.555Z,40.90
2019-02-16T22:34:28.596Z,41.97
2019-02-16T22:36:56.571Z,48.47
2019-02-16T22:39:24.491Z,43.47
2019-02-16T22:41:52.435Z,40.90
2019-02-16T22:44:20.414Z,44.53
2019-02-16T22:46:51.051Z,45.50
2019-02-16T22:49:19.055Z,57.90
2019-02-16T22:51:47.079Z,45.20
2019-02-16T22:54:15.369Z,47.77
2019-02-16T22:56:43.409Z,54.83
2019-02-16T22:59:11.378Z,52.53
2019-02-16T23:01:39.572Z,54.20
2019-02-16T23:04:07.530Z,55.33
2019-02-16T23:06:35.668Z,51.47
2019-02-16T23:09:05.564Z,48.20
2019-02-16T23:11:33.726Z,52.17
2019-02-16T23:14:01.646Z,48.40
2019-02-16T23:16:29.661Z,56.67
2019-02-16T23:18:57.669Z,47.37
2019-02-16T23:21:25.603Z,50.57
2019-02-16T23:23:53.603Z,49.67
2019-02-16T23:26:21.516Z,45.70
2019-02-16T23:28:49.436Z,49.10
2019-02-16T23:31:17.410Z,43.63
2019-02-16T23:33:45.312Z,51.73
2019-02-16T23:36:13.513Z,43.13
2019-02-16T23:38:41.884Z,43.67
2019-02-16T23:41:09.854Z,49.50
2019-02-16T23:43:37.882Z,49.10
2019-02-16T23:46:05.831Z,45.90
2019-02-16T23:48:34.163Z,49.27
2019-02-16T23:51:02.174Z,51.00
2019-02-16T23:53:30.103Z,49.23
2019-02-16T23:55:58.079Z,54.17
2019-02-16T23:58:26.060Z,62.77
